Lerwick / Tingwall Airport


Codes: EGET/LWK
Name: Lerwick / Tingwall Airport
City: Lerwick
Country: United Kingdom
Elevation: 43 ft.
Wikipedia:

Photos at Lerwick / Tingwall Airport


   Photos courtesy of SpottingLog. You can add your own sightings and photos by signing up for a free trial today.



No photos found.

Weather at Lerwick / Tingwall Airport


Time (UTC)DescriptionTempratureWindCloud coverageVisibilityPressureHumidity
23-May-2024 21:00Light Rain12°C11 mph, NE100%10000m1014hPa97%
24-May-2024 00:00Overcast Clouds11°C16 mph, NE100%10000m1014hPa95%
24-May-2024 03:00Broken Clouds10°C9 mph, NE51%10000m1014hPa95%
24-May-2024 06:00Scattered Clouds12°C7 mph, E40%10000m1016hPa91%
24-May-2024 09:00Light Rain13°C7 mph, E100%10000m1017hPa90%
24-May-2024 12:00Light Rain12°C11 mph, SE100%10000m1018hPa94%
24-May-2024 15:00Broken Clouds13°C11 mph, SE52%10000m1019hPa79%
24-May-2024 18:00Scattered Clouds12°C13 mph, SE36%10000m1019hPa88%
24-May-2024 21:00Scattered Clouds10°C11 mph, SE47%10000m1020hPa96%
25-May-2024 00:00Scattered Clouds10°C13 mph, SE43%10000m1021hPa96%
25-May-2024 03:00Broken Clouds10°C11 mph, SE71%10000m1021hPa94%
25-May-2024 06:00Broken Clouds11°C11 mph, SE81%10000m1021hPa87%
25-May-2024 09:00Broken Clouds13°C11 mph, SE54%10000m1021hPa80%
25-May-2024 12:00Scattered Clouds13°C11 mph, SE35%10000m1021hPa76%
25-May-2024 15:00Scattered Clouds13°C11 mph, SE41%10000m1021hPa75%
25-May-2024 18:00Broken Clouds12°C9 mph, SE70%10000m1020hPa78%
25-May-2024 21:00Overcast Clouds11°C7 mph, SE100%10000m1019hPa88%
26-May-2024 00:00Overcast Clouds10°C7 mph, E100%10000m1018hPa86%
26-May-2024 03:00Overcast Clouds10°C7 mph, E100%10000m1017hPa93%
26-May-2024 06:00Overcast Clouds11°C13 mph, E100%10000m1016hPa93%
26-May-2024 09:00Overcast Clouds13°C13 mph, SE95%10000m1015hPa80%
26-May-2024 12:00Overcast Clouds13°C13 mph, SE95%10000m1014hPa78%
26-May-2024 15:00Light Rain11°C11 mph, SE90%10000m1014hPa94%
26-May-2024 18:00Overcast Clouds12°C11 mph, SE87%10000m1013hPa86%
26-May-2024 21:00Broken Clouds10°C7 mph, SE70%10000m1013hPa93%
27-May-2024 00:00Broken Clouds10°C11 mph, SE68%10000m1013hPa93%
27-May-2024 03:00Broken Clouds10°C11 mph, SE83%10000m1012hPa95%
27-May-2024 06:00Broken Clouds12°C11 mph, SE51%10000m1012hPa91%
27-May-2024 09:00Broken Clouds13°C11 mph, SE55%10000m1012hPa84%
27-May-2024 12:00Broken Clouds14°C11 mph, SE61%10000m1012hPa82%
27-May-2024 15:00Scattered Clouds14°C11 mph, SE40%10000m1011hPa80%
27-May-2024 18:00Scattered Clouds13°C11 mph, SE46%10000m1011hPa87%
27-May-2024 21:00Overcast Clouds10°C9 mph, S85%10000m1011hPa93%
28-May-2024 00:00Broken Clouds10°C9 mph, S54%10000m1011hPa92%
28-May-2024 03:00Broken Clouds10°C11 mph, S55%10000m1011hPa93%
28-May-2024 06:00Broken Clouds11°C13 mph, S73%10000m1010hPa87%
28-May-2024 09:00Overcast Clouds12°C11 mph, S92%10000m1010hPa83%
28-May-2024 12:00Broken Clouds13°C11 mph, S67%10000m1010hPa80%
28-May-2024 15:00Broken Clouds13°C9 mph, SE53%10000m1010hPa82%
28-May-2024 18:00Broken Clouds12°C9 mph, SE67%10000m1010hPa85%